Time;durP1;ratioP1;P1;durP2;ratioP2;P2;SDS_P1;SDS_P2;PMS_P1;PMS_P2;Temp;Humidity;BMP_temperature;BMP_pressure;BME280_temperature;BME280_humidity;BME280_pressure;Samples;Min_cycle;Max_cycle;Signal;HPM_P1;HPM_P2
2022/05/03 00:01:19;;;;;;;7.37;6.30;;;15.00;71.90;;;;;;5027832;28;20946;-64
2022/05/03 00:03:57;;;;;;;9.83;6.83;;;15.00;71.80;;;;;;5028393;28;20468;-65
2022/05/03 00:06:30;;;;;;;7.40;6.80;;;14.90;71.70;;;;;;5018322;28;20476;-65
2022/05/03 00:09:04;;;;;;;8.07;6.40;;;14.90;71.50;;;;;;5033035;28;20275;-65
2022/05/03 00:11:33;;;;;;;7.60;6.80;;;14.90;71.40;;;;;;5016360;28;20476;-66
2022/05/03 00:14:07;;;;;;;7.60;6.90;;;14.80;71.30;;;;;;5029730;28;20475;-65
2022/05/03 00:16:36;;;;;;;8.43;7.60;;;14.80;71.30;;;;;;5033486;28;20471;-65
2022/05/03 00:19:06;;;;;;;7.20;6.60;;;14.80;71.50;;;;;;5033956;28;20467;-65
2022/05/03 00:21:35;;;;;;;7.50;6.90;;;14.70;71.50;;;;;;5033971;28;20530;-65
2022/05/03 00:24:02;;;;;;;8.20;7.40;;;14.80;71.50;;;;;;5020943;28;20659;-65
2022/05/03 00:26:29;;;;;;;6.77;6.27;;;14.70;71.60;;;;;;5033488;28;20515;-65
2022/05/03 00:28:57;;;;;;;8.57;7.77;;;14.70;71.60;;;;;;5035471;28;20468;-65
2022/05/03 00:31:27;;;;;;;7.60;6.90;;;14.70;71.40;;;;;;5034936;28;20479;-65
2022/05/03 00:33:55;;;;;;;7.33;6.70;;;14.60;71.50;;;;;;5035958;28;20500;-65
2022/05/03 00:36:22;;;;;;;7.50;6.73;;;14.60;71.70;;;;;;5030513;28;20460;-65
2022/05/03 00:38:49;;;;;;;10.27;6.95;;;14.50;71.50;;;;;;5030274;28;20460;-65
2022/05/03 00:41:22;;;;;;;7.00;6.43;;;14.50;71.70;;;;;;5035851;28;20229;-65
2022/05/03 00:43:58;;;;;;;6.82;6.22;;;14.50;71.80;;;;;;5035316;28;20479;-64
2022/05/03 00:46:31;;;;;;;7.20;6.60;;;14.50;71.70;;;;;;5034597;28;20221;-65
2022/05/03 00:49:16;;;;;;;6.73;6.23;;;14.40;71.70;;;;;;5035274;28;20975;-65
2022/05/03 00:51:50;;;;;;;7.17;6.67;;;14.40;71.90;;;;;;5022656;28;20468;-65
2022/05/03 00:54:27;;;;;;;7.93;7.23;;;14.40;71.90;;;;;;5035621;28;20472;-64
2022/05/03 00:57:20;;;;;;;7.80;7.10;;;14.30;72.30;;;;;;5035207;28;20464;-65
2022/05/03 01:00:05;;;;;;;7.20;6.50;;;14.20;72.40;;;;;;5022197;28;20563;-65
2022/05/03 01:02:59;;;;;;;7.40;6.77;;;14.20;72.60;;;;;;5034752;28;20229;-65
2022/05/03 01:05:29;;;;;;;7.07;6.47;;;14.20;72.90;;;;;;5035491;28;20492;-65
2022/05/03 01:08:04;;;;;;;6.35;5.75;;;14.10;73.20;;;;;;5022095;28;20304;-64
2022/05/03 01:10:34;;;;;;;8.83;7.83;;;14.10;73.50;;;;;;5035129;28;20283;-64
2022/05/03 01:13:04;;;;;;;8.02;7.20;;;14.10;73.80;;;;;;5035129;28;20517;-65
2022/05/03 01:15:33;;;;;;;12.87;6.63;;;14.00;74.00;;;;;;5035250;28;20236;-65
2022/05/03 01:18:18;;;;;;;8.43;7.70;;;14.00;74.50;;;;;;5034762;28;20464;-65
2022/05/03 01:20:53;;;;;;;7.50;6.80;;;13.90;74.40;;;;;;5034496;28;20232;-65
2022/05/03 01:23:53;;;;;;;8.40;7.60;;;13.90;74.30;;;;;;5035135;28;20217;-65
2022/05/03 01:26:58;;;;;;;7.75;6.95;;;13.90;74.60;;;;;;5034822;28;20682;-65
2022/05/03 01:29:34;;;;;;;7.07;6.47;;;13.90;75.00;;;;;;5025054;28;20226;-65
2022/05/03 01:32:03;;;;;;;6.93;6.30;;;13.80;75.20;;;;;;5034833;28;20232;-65
2022/05/03 01:34:31;;;;;;;8.45;7.65;;;13.90;75.40;;;;;;5034491;28;20225;-65
2022/05/03 01:37:37;;;;;;;10.02;8.27;;;13.90;75.60;;;;;;5027374;28;20227;-65
2022/05/03 01:40:06;;;;;;;8.48;7.57;;;13.90;75.60;;;;;;5034594;28;20217;-65
2022/05/03 01:43:01;;;;;;;8.43;7.63;;;13.80;75.70;;;;;;5034551;28;20221;-66
2022/05/03 01:45:32;;;;;;;8.57;7.85;;;13.80;75.80;;;;;;5029143;28;20228;-64
2022/05/03 01:48:24;;;;;;;9.38;6.90;;;13.80;76.00;;;;;;5034431;28;20231;-65
2022/05/03 01:50:58;;;;;;;8.98;8.25;;;13.80;76.10;;;;;;5021010;28;20229;-64
2022/05/03 01:53:30;;;;;;;7.20;6.70;;;13.80;76.10;;;;;;5034620;28;20248;-65
2022/05/03 01:56:19;;;;;;;8.32;7.63;;;13.70;76.10;;;;;;5033813;28;20237;-65
2022/05/03 01:59:10;;;;;;;9.32;8.32;;;13.70;76.30;;;;;;5034078;28;20324;-65
2022/05/03 02:01:51;;;;;;;9.00;8.20;;;13.60;76.30;;;;;;5023110;28;20237;-65
2022/05/03 02:04:31;;;;;;;10.83;8.60;;;13.60;76.70;;;;;;5033971;28;20316;-65
2022/05/03 02:07:07;;;;;;;8.55;7.85;;;13.50;76.70;;;;;;5033723;28;20475;-65
2022/05/03 02:09:54;;;;;;;8.93;8.13;;;13.50;76.80;;;;;;5034326;28;20221;-64
2022/05/03 02:12:22;;;;;;;7.13;6.50;;;13.50;76.90;;;;;;5033900;28;20221;-65
2022/05/03 02:14:51;;;;;;;8.93;7.53;;;13.50;77.10;;;;;;5034141;28;20225;-65
2022/05/03 02:17:54;;;;;;;8.57;7.80;;;13.50;77.20;;;;;;5033620;28;20244;-65
2022/05/03 02:20:46;;;;;;;9.82;7.75;;;13.50;77.30;;;;;;5033460;28;20687;-64
2022/05/03 02:23:30;;;;;;;9.48;8.45;;;13.50;77.40;;;;;;5033445;28;20279;-65
2022/05/03 02:26:12;;;;;;;8.80;6.95;;;13.40;77.50;;;;;;5021592;28;20225;-64
2022/05/03 02:28:42;;;;;;;13.85;7.65;;;13.40;77.60;;;;;;5033701;28;20687;-65
2022/05/03 02:31:14;;;;;;;8.10;7.30;;;13.40;77.80;;;;;;5033231;28;20248;-64
2022/05/03 02:33:49;;;;;;;9.85;8.10;;;13.40;77.80;;;;;;5033528;28;20703;-64
2022/05/03 02:36:22;;;;;;;9.05;8.25;;;13.40;77.90;;;;;;5028397;28;20220;-65
2022/05/03 02:38:55;;;;;;;9.02;8.10;;;13.40;78.20;;;;;;5031948;28;20241;-64
2022/05/03 02:41:24;;;;;;;8.38;7.68;;;13.40;78.40;;;;;;5033008;28;20268;-64
2022/05/03 02:43:52;;;;;;;8.70;7.35;;;13.40;78.50;;;;;;5033775;28;20221;-64
2022/05/03 02:46:39;;;;;;;9.43;8.55;;;13.40;78.50;;;;;;5033184;28;20237;-65
2022/05/03 02:49:16;;;;;;;8.77;7.93;;;13.40;78.60;;;;;;5033107;28;20225;-65
2022/05/03 02:51:51;;;;;;;8.55;7.75;;;13.40;78.60;;;;;;5021559;28;20304;-64
2022/05/03 02:54:30;;;;;;;8.77;8.07;;;13.40;78.60;;;;;;5032999;28;20221;-65
2022/05/03 02:57:06;;;;;;;8.93;7.97;;;13.30;78.70;;;;;;5033316;28;20240;-64
2022/05/03 03:02:34;;;;;;;7.45;6.75;;;13.20;79.00;;;;;;5032719;28;20244;-64
2022/05/03 03:05:06;;;;;;;9.02;7.50;;;13.20;79.00;;;;;;5033390;28;20607;-65
2022/05/03 03:07:44;;;;;;;8.02;7.32;;;13.10;79.30;;;;;;5033064;28;20232;-65
2022/05/03 03:10:19;;;;;;;9.05;8.20;;;13.10;79.40;;;;;;5033011;28;20221;-65
2022/05/03 03:12:54;;;;;;;8.32;7.10;;;13.10;79.40;;;;;;5019964;28;20569;-64
2022/05/03 03:15:28;;;;;;;7.35;6.75;;;13.10;79.70;;;;;;5032568;28;20221;-65
2022/05/03 03:17:57;;;;;;;8.15;7.45;;;13.00;79.80;;;;;;5033231;28;20229;-64
2022/05/03 03:20:26;;;;;;;8.65;7.78;;;13.00;79.80;;;;;;5032451;28;20283;-64
2022/05/03 03:22:54;;;;;;;8.32;7.55;;;13.00;79.90;;;;;;5033150;28;20233;-65
2022/05/03 03:25:22;;;;;;;8.00;7.28;;;13.00;80.10;;;;;;5032626;28;20229;-64
2022/05/03 03:27:51;;;;;;;7.80;7.00;;;13.00;80.20;;;;;;5032822;28;20233;-64
2022/05/03 03:30:18;;;;;;;8.55;7.78;;;12.90;80.50;;;;;;5032647;28;20225;-64
2022/05/03 03:32:48;;;;;;;8.73;7.93;;;12.90;80.50;;;;;;5032928;28;20237;-64
2022/05/03 03:35:15;;;;;;;9.93;8.30;;;12.90;80.80;;;;;;5032384;28;20225;-64
2022/05/03 03:37:45;;;;;;;10.63;9.55;;;12.90;81.00;;;;;;5025352;28;20236;-65
2022/05/03 03:40:14;;;;;;;7.70;7.00;;;12.90;81.00;;;;;;5019651;28;20229;-64
2022/05/03 03:42:42;;;;;;;9.82;7.85;;;12.90;80.90;;;;;;5032785;28;20229;-65
2022/05/03 03:45:11;;;;;;;8.52;7.63;;;12.80;81.00;;;;;;5032614;28;20237;-64
2022/05/03 03:47:40;;;;;;;8.30;7.45;;;12.80;81.30;;;;;;5032507;28;20221;-64
2022/05/03 03:50:08;;;;;;;9.45;8.38;;;12.80;81.50;;;;;;5032829;28;20584;-65
2022/05/03 03:52:36;;;;;;;8.52;7.65;;;12.80;81.60;;;;;;5032259;28;20233;-65
2022/05/03 03:55:06;;;;;;;8.15;7.50;;;12.80;81.80;;;;;;5032682;28;20232;-64
2022/05/03 03:57:35;;;;;;;9.68;7.07;;;12.80;81.70;;;;;;5032197;28;20237;-65
2022/05/03 04:00:03;;;;;;;8.40;7.60;;;12.80;81.60;;;;;;5032748;28;20221;-65
2022/05/03 04:02:30;;;;;;;8.10;7.30;;;12.80;81.70;;;;;;5031863;28;20275;-65
2022/05/03 04:04:58;;;;;;;8.02;7.22;;;12.80;81.60;;;;;;5032622;28;20308;-65
2022/05/03 04:07:25;;;;;;;7.72;7.00;;;12.90;81.70;;;;;;5032330;28;20238;-65
2022/05/03 04:09:52;;;;;;;7.65;6.95;;;12.90;81.70;;;;;;5032785;28;20247;-65
2022/05/03 04:12:22;;;;;;;7.95;6.78;;;12.90;82.40;;;;;;5031966;28;20225;-65
2022/05/03 04:14:49;;;;;;;8.55;7.70;;;12.90;81.60;;;;;;5032551;28;20222;-65
2022/05/03 04:17:15;;;;;;;7.93;7.22;;;12.90;81.40;;;;;;5032563;28;20687;-65
2022/05/03 04:19:43;;;;;;;6.82;6.32;;;13.00;81.50;;;;;;5032190;28;20576;-66
2022/05/03 04:22:24;;;;;;;9.73;7.60;;;13.00;81.40;;;;;;5032281;28;20229;-65
2022/05/03 04:24:51;;;;;;;8.43;7.28;;;13.00;81.20;;;;;;5034472;28;20217;-65
2022/05/03 04:27:17;;;;;;;10.55;8.35;;;13.10;81.40;;;;;;5023182;28;20567;-64
2022/05/03 04:29:48;;;;;;;10.10;7.82;;;13.10;81.30;;;;;;5035746;28;20243;-65
2022/05/03 04:32:15;;;;;;;11.10;7.50;;;13.10;80.90;;;;;;5036059;28;20217;-65
2022/05/03 04:34:42;;;;;;;8.18;7.38;;;13.20;81.00;;;;;;5035563;28;20580;-65
2022/05/03 04:37:09;;;;;;;9.10;8.20;;;13.20;81.00;;;;;;5031864;28;20229;-65
2022/05/03 04:39:36;;;;;;;8.20;6.50;;;13.20;80.90;;;;;;5035554;28;20229;-65
2022/05/03 04:42:04;;;;;;;7.07;6.45;;;13.30;80.60;;;;;;5035836;28;20234;-65
2022/05/03 04:44:31;;;;;;;6.85;6.03;;;13.30;80.60;;;;;;5035332;28;20569;-65
2022/05/03 04:46:59;;;;;;;8.45;5.97;;;13.40;80.60;;;;;;5035869;28;20229;-65
2022/05/03 04:49:26;;;;;;;9.82;7.03;;;13.40;80.60;;;;;;5035546;28;20221;-66
2022/05/03 04:51:53;;;;;;;7.25;6.55;;;13.50;80.70;;;;;;5035491;28;20564;-65
2022/05/03 04:54:19;;;;;;;8.15;7.18;;;13.50;80.60;;;;;;5035618;28;20671;-65
2022/05/03 04:56:50;;;;;;;6.88;6.15;;;13.50;80.40;;;;;;5035231;28;20236;-64
2022/05/03 04:59:17;;;;;;;10.07;6.90;;;13.60;80.20;;;;;;5035352;28;20232;-66
2022/05/03 05:01:43;;;;;;;6.70;6.10;;;13.60;80.00;;;;;;5035127;28;20236;-65
2022/05/03 05:04:12;;;;;;;9.48;7.25;;;13.60;79.70;;;;;;5035218;28;20237;-65
2022/05/03 05:06:38;;;;;;;13.90;7.20;;;13.60;79.00;;;;;;5034944;28;20563;-65
2022/05/03 05:09:05;;;;;;;7.50;6.32;;;13.60;78.80;;;;;;5035212;28;20229;-65
2022/05/03 05:11:32;;;;;;;7.53;6.72;;;13.60;78.20;;;;;;5034941;28;20229;-65
2022/05/03 05:13:59;;;;;;;8.68;6.60;;;13.60;77.50;;;;;;5034693;28;20552;-65
2022/05/03 05:16:35;;;;;;;6.47;5.88;;;13.60;77.10;;;;;;5035394;28;20221;-65
2022/05/03 05:19:02;;;;;;;8.25;5.97;;;13.70;77.00;;;;;;5034449;28;20575;-65
2022/05/03 05:21:30;;;;;;;7.65;5.65;;;13.70;76.70;;;;;;5034531;28;20559;-66
2022/05/03 05:23:57;;;;;;;7.05;6.45;;;13.80;76.50;;;;;;5034535;28;20233;-65
2022/05/03 05:26:23;;;;;;;5.63;5.13;;;13.80;76.40;;;;;;5035280;28;20222;-65
2022/05/03 05:28:50;;;;;;;8.77;6.13;;;13.80;75.60;;;;;;5034785;28;20217;-65
2022/05/03 05:31:17;;;;;;;6.47;4.93;;;13.80;75.10;;;;;;5035178;28;20231;-65
2022/05/03 05:33:44;;;;;;;10.38;6.55;;;13.90;74.70;;;;;;5034538;28;20253;-65
2022/05/03 05:36:11;;;;;;;5.80;5.20;;;13.90;74.50;;;;;;5033916;28;20221;-65
2022/05/03 05:38:39;;;;;;;6.15;5.40;;;14.00;74.30;;;;;;5034460;28;20687;-65
2022/05/03 05:41:13;;;;;;;5.30;4.60;;;14.00;73.90;;;;;;5034612;28;20221;-65
2022/05/03 05:43:41;;;;;;;5.25;4.70;;;14.10;73.80;;;;;;5014805;28;20233;-65
2022/05/03 05:46:08;;;;;;;5.53;4.90;;;14.10;73.40;;;;;;5034223;28;21297;-65
2022/05/03 05:48:35;;;;;;;5.57;5.10;;;14.20;72.70;;;;;;5034600;28;20225;-65
2022/05/03 05:51:02;;;;;;;5.30;4.28;;;14.20;72.10;;;;;;5034225;28;20230;-65
2022/05/03 05:53:33;;;;;;;5.70;5.20;;;14.30;71.70;;;;;;5034834;28;20412;-65
2022/05/03 05:56:03;;;;;;;5.60;3.88;;;14.30;71.50;;;;;;5034130;28;20241;-65
2022/05/03 05:58:30;;;;;;;4.13;3.83;;;14.40;71.10;;;;;;5034663;28;20387;-65
2022/05/03 06:01:00;;;;;;;6.18;4.10;;;14.40;70.70;;;;;;5033991;28;20229;-64
2022/05/03 06:03:28;;;;;;;5.23;4.73;;;14.50;70.50;;;;;;5034583;28;20232;-64
2022/05/03 06:05:56;;;;;;;6.18;3.97;;;14.50;70.10;;;;;;5033920;28;20503;-64
2022/05/03 06:08:31;;;;;;;6.95;4.13;;;14.60;69.40;;;;;;5034706;28;20574;-64
2022/05/03 06:10:59;;;;;;;4.93;3.40;;;14.60;67.20;;;;;;5033937;28;20749;-64
2022/05/03 06:13:27;;;;;;;4.78;4.25;;;14.60;66.70;;;;;;5034223;28;20217;-64
2022/05/03 06:15:54;;;;;;;4.90;3.17;;;14.60;66.90;;;;;;5033899;28;20287;-65
2022/05/03 06:18:22;;;;;;;5.80;3.47;;;14.60;66.90;;;;;;5034181;28;20468;-64
2022/05/03 06:20:49;;;;;;;3.83;3.53;;;14.70;66.50;;;;;;5033844;28;20475;-64
2022/05/03 06:23:16;;;;;;;7.30;4.50;;;14.70;66.10;;;;;;5034053;28;20233;-64
2022/05/03 06:25:43;;;;;;;4.00;3.30;;;14.80;65.50;;;;;;5034037;28;20468;-64
2022/05/03 06:28:10;;;;;;;11.07;3.10;;;14.80;65.20;;;;;;5033562;28;20464;-65
2022/05/03 06:30:38;;;;;;;3.33;3.10;;;14.90;64.90;;;;;;5033998;28;20472;-65
2022/05/03 06:33:06;;;;;;;6.07;3.40;;;14.90;64.70;;;;;;5033630;28;20966;-64
2022/05/03 06:35:33;;;;;;;6.13;4.67;;;14.90;64.90;;;;;;5033980;28;20534;-65
2022/05/03 06:37:59;;;;;;;10.07;3.87;;;15.00;65.00;;;;;;5033417;28;20546;-65
2022/05/03 06:40:26;;;;;;;3.33;2.83;;;15.00;64.90;;;;;;5033839;28;20464;-65
2022/05/03 06:42:54;;;;;;;6.00;3.13;;;15.10;64.70;;;;;;5033255;28;20997;-66
2022/05/03 06:45:21;;;;;;;4.13;3.13;;;15.30;64.30;;;;;;5033656;28;20961;-66
2022/05/03 06:47:49;;;;;;;5.07;2.80;;;15.40;64.60;;;;;;5033312;28;20808;-65
2022/05/03 06:50:17;;;;;;;3.23;2.93;;;15.50;64.20;;;;;;5033663;28;20475;-65
2022/05/03 06:52:44;;;;;;;3.13;2.80;;;15.50;64.10;;;;;;5033753;28;20472;-64
2022/05/03 06:55:12;;;;;;;8.90;3.13;;;15.60;64.10;;;;;;5033102;28;20460;-64
2022/05/03 06:57:39;;;;;;;3.17;2.90;;;15.70;63.90;;;;;;5033495;28;20464;-64
2022/05/03 07:00:07;;;;;;;3.20;2.67;;;15.70;63.40;;;;;;5033114;28;20551;-66
2022/05/03 07:02:35;;;;;;;3.00;2.80;;;15.80;63.20;;;;;;5033392;28;21138;-64
2022/05/03 07:05:05;;;;;;;6.30;2.70;;;15.80;63.80;;;;;;5033172;28;20472;-65
2022/05/03 07:07:33;;;;;;;2.77;2.30;;;15.90;63.30;;;;;;5033532;28;20472;-65
2022/05/03 07:10:00;;;;;;;3.77;2.70;;;15.90;63.10;;;;;;5032960;28;20483;-65
2022/05/03 07:12:27;;;;;;;3.50;3.13;;;15.90;63.60;;;;;;5033519;28;20790;-64
2022/05/03 07:14:58;;;;;;;4.07;3.23;;;16.00;62.90;;;;;;5032866;28;20464;-64
2022/05/03 07:22:55;;;;;;;2.70;2.50;;;16.40;62.70;;;;;;5032858;28;20807;-64
2022/05/03 07:25:22;;;;;;;4.10;2.47;;;16.50;62.20;;;;;;5033129;28;20478;-64
2022/05/03 07:27:50;;;;;;;3.87;3.37;;;16.60;62.00;;;;;;5033253;28;20555;-64
2022/05/03 07:30:18;;;;;;;4.70;3.00;;;16.70;61.20;;;;;;5032989;28;21266;-64
2022/05/03 07:32:45;;;;;;;4.83;2.57;;;16.80;61.50;;;;;;5033058;28;20472;-65
2022/05/03 07:35:14;;;;;;;4.90;3.23;;;16.80;61.20;;;;;;5032549;28;20479;-65
2022/05/03 07:37:41;;;;;;;2.60;2.20;;;16.70;60.90;;;;;;5032984;28;20788;-65
2022/05/03 07:40:10;;;;;;;2.60;2.00;;;16.70;60.80;;;;;;5032679;28;20514;-65
2022/05/03 07:42:37;;;;;;;2.93;2.70;;;16.80;61.20;;;;;;5033104;28;20487;-65
2022/05/03 07:45:05;;;;;;;2.80;2.37;;;16.80;61.50;;;;;;5032609;28;20472;-65
2022/05/03 07:47:32;;;;;;;3.23;2.77;;;16.90;61.80;;;;;;5032979;28;20483;-65
2022/05/03 07:49:59;;;;;;;3.20;2.70;;;16.90;61.60;;;;;;5032487;28;20475;-65
2022/05/03 07:52:27;;;;;;;4.00;3.13;;;17.00;61.50;;;;;;5032814;28;20476;-65
2022/05/03 07:54:55;;;;;;;4.10;2.67;;;17.10;60.70;;;;;;5032316;28;20466;-65
2022/05/03 07:57:22;;;;;;;2.57;2.27;;;17.20;59.30;;;;;;5032530;28;20474;-66
2022/05/03 07:59:48;;;;;;;6.87;2.30;;;17.20;59.30;;;;;;5035043;28;20475;-64
2022/05/03 08:02:15;;;;;;;4.00;2.83;;;17.30;59.20;;;;;;5036487;28;20481;-64
2022/05/03 08:04:42;;;;;;;3.70;3.13;;;17.30;58.80;;;;;;5036704;28;20778;-65
2022/05/03 08:07:09;;;;;;;3.53;2.43;;;17.40;58.90;;;;;;5036190;28;20481;-65
2022/05/03 08:09:37;;;;;;;3.30;3.00;;;17.40;58.70;;;;;;5036729;28;20498;-65
2022/05/03 08:12:05;;;;;;;2.57;2.37;;;17.50;58.40;;;;;;5036108;28;20489;-66
2022/05/03 08:14:33;;;;;;;3.47;2.50;;;17.60;58.20;;;;;;5036527;28;20479;-64
2022/05/03 08:16:59;;;;;;;2.73;2.53;;;17.60;57.50;;;;;;5036139;28;20474;-64
2022/05/03 08:19:26;;;;;;;3.00;2.77;;;17.70;57.60;;;;;;5036392;28;20980;-64
2022/05/03 08:21:56;;;;;;;11.40;3.57;;;17.80;57.70;;;;;;5036336;28;20478;-64
2022/05/03 08:24:23;;;;;;;4.00;3.00;;;17.80;57.30;;;;;;5036153;28;20477;-65
2022/05/03 08:26:51;;;;;;;3.10;2.80;;;17.90;57.40;;;;;;5036568;28;20467;-65
2022/05/03 08:29:19;;;;;;;2.90;2.67;;;17.90;57.30;;;;;;5035833;28;20482;-65
2022/05/03 08:31:46;;;;;;;4.60;3.33;;;18.00;56.50;;;;;;5036322;28;20475;-65
2022/05/03 08:34:13;;;;;;;2.60;2.40;;;18.10;56.70;;;;;;5035818;28;20472;-65
2022/05/03 08:36:40;;;;;;;4.00;2.67;;;18.20;56.80;;;;;;5036371;28;20466;-65
2022/05/03 08:42:06;;;;;;;3.10;2.90;;;18.20;56.10;;;;;;5036125;28;20481;-65
2022/05/03 08:44:34;;;;;;;13.43;8.60;;;18.30;56.60;;;;;;5035921;28;20537;-65
2022/05/03 08:47:02;;;;;;;7.00;6.13;;;18.30;56.70;;;;;;5035908;28;20481;-65
2022/05/03 08:49:39;;;;;;;4.77;4.30;;;18.30;56.50;;;;;;5035346;28;20830;-65
2022/05/03 08:52:09;;;;;;;3.90;2.70;;;18.30;56.50;;;;;;5036049;28;20818;-65
2022/05/03 08:54:37;;;;;;;2.93;2.67;;;18.40;56.50;;;;;;5035690;28;20509;-65
2022/05/03 08:57:08;;;;;;;2.37;2.17;;;18.40;56.50;;;;;;5035699;28;21042;-65
2022/05/03 08:59:37;;;;;;;4.07;2.27;;;18.50;56.70;;;;;;5035348;28;20463;-64
2022/05/03 09:02:04;;;;;;;12.00;3.70;;;18.50;56.30;;;;;;5035622;28;20474;-65
2022/05/03 09:04:31;;;;;;;16.00;4.50;;;18.50;56.20;;;;;;5035199;28;20476;-65
2022/05/03 09:06:58;;;;;;;4.10;3.03;;;18.60;55.30;;;;;;5035689;28;20472;-65
2022/05/03 09:09:25;;;;;;;7.67;3.73;;;18.60;55.30;;;;;;5035100;28;20472;-65
2022/05/03 09:11:54;;;;;;;8.17;3.20;;;18.60;55.30;;;;;;5034002;28;20479;-65
2022/05/03 09:14:39;;;;;;;6.70;3.20;;;18.60;55.60;;;;;;5034896;28;20504;-65
2022/05/03 09:17:07;;;;;;;8.63;2.70;;;18.60;55.70;;;;;;5035448;28;20460;-65
2022/05/03 09:19:34;;;;;;;4.33;2.33;;;18.60;55.90;;;;;;5035044;28;20491;-65
2022/05/03 09:24:55;;;;;;;3.10;2.17;;;18.70;55.00;;;;;;5034965;28;20475;-65
2022/05/03 09:27:23;;;;;;;2.20;2.00;;;18.70;54.00;;;;;;5035008;28;20468;-65
2022/05/03 09:30:10;;;;;;;3.10;1.90;;;18.80;53.30;;;;;;5035089;28;20481;-64
2022/05/03 09:32:38;;;;;;;3.40;2.70;;;18.80;52.30;;;;;;5034783;28;20463;-64
2022/05/03 09:35:06;;;;;;;5.43;2.47;;;18.80;51.90;;;;;;5035255;28;20472;-64
2022/05/03 09:37:40;;;;;;;2.23;1.67;;;18.80;51.90;;;;;;5034556;28;20463;-65
2022/05/03 09:40:09;;;;;;;2.50;2.30;;;18.80;52.40;;;;;;5034941;28;20460;-64
2022/05/03 09:42:38;;;;;;;2.70;2.50;;;18.80;52.70;;;;;;5034469;28;20464;-65
2022/05/03 09:45:08;;;;;;;2.70;2.20;;;18.90;53.00;;;;;;5034953;28;20479;-65
2022/05/03 09:47:48;;;;;;;3.27;2.37;;;18.90;52.50;;;;;;5034475;28;20503;-63
2022/05/03 09:50:27;;;;;;;3.00;1.97;;;19.00;52.50;;;;;;5026937;28;20471;-64
2022/05/03 09:52:54;;;;;;;2.73;2.53;;;18.90;52.50;;;;;;5034520;28;20831;-65
2022/05/03 09:55:29;;;;;;;2.60;2.40;;;19.00;51.90;;;;;;5034761;28;20494;-65
2022/05/03 09:57:57;;;;;;;3.30;3.00;;;19.00;51.90;;;;;;5014535;28;20453;-65
2022/05/03 10:00:24;;;;;;;2.40;1.73;;;19.00;51.00;;;;;;5014848;28;20477;-65
2022/05/03 10:02:54;;;;;;;3.20;2.47;;;19.00;49.60;;;;;;5014281;28;20473;-65
2022/05/03 10:05:21;;;;;;;2.53;2.33;;;19.00;49.70;;;;;;5014738;28;20469;-65
2022/05/03 10:07:49;;;;;;;3.50;2.27;;;19.00;50.10;;;;;;5014353;28;20484;-65
2022/05/03 10:10:17;;;;;;;1.53;1.43;;;19.00;50.70;;;;;;5014714;28;20469;-65
2022/05/03 10:12:44;;;;;;;3.10;1.97;;;19.10;51.50;;;;;;5014213;28;20484;-64
2022/05/03 10:15:13;;;;;;;2.80;1.77;;;19.10;51.50;;;;;;4996804;28;20462;-65
2022/05/03 10:20:39;;;;;;;3.20;1.90;;;19.00;50.80;;;;;;4994864;28;20469;-65
2022/05/03 10:23:20;;;;;;;2.80;1.70;;;19.00;50.90;;;;;;4994335;28;20987;-64
2022/05/03 10:25:51;;;;;;;3.10;1.70;;;19.00;51.20;;;;;;4994491;28;20477;-64
2022/05/03 10:28:18;;;;;;;1.87;1.77;;;19.00;51.20;;;;;;4994731;28;20466;-63
2022/05/03 10:31:10;;;;;;;2.70;1.60;;;19.00;51.70;;;;;;4994305;28;20476;-65
2022/05/03 10:33:41;;;;;;;2.23;1.80;;;19.10;52.30;;;;;;4994663;28;20469;-64
2022/05/03 10:36:44;;;;;;;1.97;1.87;;;19.20;52.70;;;;;;4994192;28;20454;-64
2022/05/03 10:39:24;;;;;;;2.17;1.97;;;19.20;53.00;;;;;;5005826;28;20923;-63
2022/05/03 10:41:56;;;;;;;2.20;1.47;;;19.20;53.20;;;;;;5013277;28;20998;-64
2022/05/03 10:44:40;;;;;;;1.90;1.80;;;19.20;52.00;;;;;;5013809;28;20473;-64
2022/05/03 10:47:08;;;;;;;2.90;1.77;;;19.30;51.40;;;;;;5012877;28;20475;-64
2022/05/03 10:49:35;;;;;;;1.60;1.43;;;19.30;51.10;;;;;;5029850;28;20475;-65
2022/05/03 10:52:17;;;;;;;2.07;1.60;;;19.30;50.80;;;;;;5033078;28;20479;-64
2022/05/03 10:55:05;;;;;;;2.20;1.93;;;19.30;50.60;;;;;;5033779;28;20468;-63
2022/05/03 10:57:31;;;;;;;2.13;1.70;;;19.40;50.40;;;;;;5024854;28;20464;-64
2022/05/03 10:59:58;;;;;;;3.43;2.07;;;19.40;50.00;;;;;;5033470;28;20460;-63
2022/05/03 11:02:27;;;;;;;2.23;1.50;;;19.40;50.20;;;;;;5033202;28;20468;-65
2022/05/03 11:05:18;;;;;;;1.43;1.20;;;19.40;50.20;;;;;;5033364;28;21297;-65
2022/05/03 11:08:17;;;;;;;1.93;1.30;;;19.50;50.70;;;;;;5032858;28;20533;-65
2022/05/03 11:10:45;;;;;;;5.03;2.00;;;19.50;50.90;;;;;;5021082;28;20539;-65
2022/05/03 11:13:38;;;;;;;1.70;1.60;;;19.50;50.90;;;;;;5026579;28;20469;-65
2022/05/03 11:16:25;;;;;;;1.87;1.50;;;19.60;51.10;;;;;;5012109;28;20472;-65
2022/05/03 11:18:52;;;;;;;1.47;1.37;;;19.60;51.00;;;;;;4991502;28;20481;-65
2022/05/03 11:21:19;;;;;;;2.93;1.57;;;19.60;51.10;;;;;;4992743;28;20474;-65
2022/05/03 11:23:56;;;;;;;1.90;1.60;;;19.60;50.50;;;;;;4993208;28;20481;-65
2022/05/03 11:26:25;;;;;;;1.77;1.67;;;19.70;50.70;;;;;;4993590;28;20472;-65
2022/05/03 11:28:53;;;;;;;1.97;1.80;;;19.70;51.00;;;;;;4993097;28;20478;-65
2022/05/03 11:31:21;;;;;;;5.13;1.60;;;19.70;51.50;;;;;;4993506;28;20469;-65
2022/05/03 11:33:50;;;;;;;2.13;1.37;;;19.80;50.80;;;;;;4990805;28;20466;-65
2022/05/03 11:36:17;;;;;;;2.50;1.20;;;19.80;50.70;;;;;;4994530;28;20466;-64
2022/05/03 11:38:44;;;;;;;4.87;1.10;;;19.70;50.30;;;;;;5011495;28;20476;-64
2022/05/03 11:41:12;;;;;;;1.10;1.00;;;19.80;50.30;;;;;;5012777;28;20472;-64
2022/05/03 11:43:39;;;;;;;2.33;1.47;;;19.80;50.30;;;;;;5013117;28;20469;-65
2022/05/03 11:46:06;;;;;;;1.30;1.20;;;19.80;50.60;;;;;;5012655;28;20457;-64
2022/05/03 11:48:34;;;;;;;1.40;1.30;;;19.90;50.40;;;;;;5012951;28;20484;-65
2022/05/03 11:56:31;;;;;;;1.20;1.10;;;20.00;50.30;;;;;;5013236;28;20620;-65
2022/05/03 11:58:58;;;;;;;1.53;1.43;;;20.00;50.00;;;;;;5012478;28;20541;-64
2022/05/03 12:01:32;;;;;;;2.23;1.90;;;20.00;50.10;;;;;;5012879;28;20477;-65
2022/05/03 12:04:01;;;;;;;2.43;1.70;;;20.00;50.30;;;;;;5012607;28;20805;-63
2022/05/03 12:06:41;;;;;;;4.03;1.87;;;20.10;50.60;;;;;;5013294;28;20544;-64
2022/05/03 12:09:10;;;;;;;1.50;1.30;;;20.20;50.60;;;;;;5012677;28;20510;-64
2022/05/03 12:12:42;;;;;;;2.50;2.30;;;20.20;50.50;;;;;;5013156;28;20810;-64
2022/05/03 12:14:34;;;;;;;2.43;2.23;;;20.20;50.70;;;;;;5012733;28;20500;-65
2022/05/03 12:17:01;;;;;;;1.80;1.50;;;20.30;50.80;;;;;;5013120;28;20802;-65
2022/05/03 12:19:34;;;;;;;1.67;1.57;;;20.40;51.00;;;;;;5012596;28;20456;-65
2022/05/03 12:22:08;;;;;;;2.47;2.27;;;20.40;50.30;;;;;;5012828;28;20544;-65
2022/05/03 12:24:37;;;;;;;4.07;1.90;;;20.50;50.50;;;;;;5012510;28;20978;-65
2022/05/03 12:27:12;;;;;;;1.40;1.30;;;20.50;50.70;;;;;;5012835;28;20462;-65
2022/05/03 12:29:46;;;;;;;1.17;1.07;;;20.50;50.30;;;;;;5012459;28;20474;-65
2022/05/03 12:32:14;;;;;;;1.83;1.20;;;20.50;50.10;;;;;;5012761;28;20517;-65
2022/05/03 12:34:42;;;;;;;1.30;1.20;;;20.50;49.90;;;;;;5012543;28;20545;-65
2022/05/03 12:37:09;;;;;;;1.50;1.40;;;20.40;50.00;;;;;;5012815;28;20470;-65
2022/05/03 12:39:37;;;;;;;1.30;1.20;;;20.40;50.20;;;;;;5012578;28;20469;-65
2022/05/03 12:42:11;;;;;;;1.60;1.40;;;20.50;49.80;;;;;;5012632;28;20484;-64
2022/05/03 12:44:49;;;;;;;4.70;1.40;;;20.50;50.20;;;;;;5012650;28;20472;-64
2022/05/03 12:47:16;;;;;;;1.63;1.17;;;20.50;50.40;;;;;;5016327;28;20808;-64
2022/05/03 12:49:43;;;;;;;1.77;1.33;;;20.50;50.60;;;;;;5015809;28;20517;-64
2022/05/03 12:52:10;;;;;;;2.00;1.80;;;20.60;50.90;;;;;;5016150;28;20474;-65
2022/05/03 12:54:39;;;;;;;2.17;2.00;;;20.60;50.80;;;;;;5015666;28;20463;-64
2022/05/03 12:59:53;;;;;;;3.60;2.70;;;20.70;51.40;;;;;;5015497;28;20468;-63
2022/05/03 13:02:20;;;;;;;2.20;2.00;;;20.70;51.70;;;;;;5015931;28;20472;-63
2022/05/03 13:04:48;;;;;;;2.23;2.00;;;20.80;51.80;;;;;;5015579;28;20487;-63
2022/05/03 13:07:15;;;;;;;2.90;2.60;;;20.80;52.00;;;;;;5015903;28;20551;-63
2022/05/03 13:09:42;;;;;;;2.30;2.10;;;20.80;51.60;;;;;;5015353;28;20477;-63
2022/05/03 13:12:10;;;;;;;2.37;2.23;;;20.90;51.60;;;;;;5015953;28;20859;-64
2022/05/03 13:14:37;;;;;;;1.80;1.70;;;20.90;51.00;;;;;;5008839;28;20548;-64
2022/05/03 13:17:05;;;;;;;5.23;3.20;;;20.90;51.00;;;;;;5001148;28;20470;-65
2022/05/03 13:19:33;;;;;;;3.47;3.27;;;20.90;50.80;;;;;;5008980;28;20484;-65
2022/05/03 13:22:01;;;;;;;3.23;2.23;;;20.90;50.40;;;;;;5003881;28;20466;-65
2022/05/03 13:24:27;;;;;;;1.70;1.60;;;20.90;50.80;;;;;;5000228;28;20488;-65
2022/05/03 13:26:55;;;;;;;1.70;1.23;;;20.90;51.00;;;;;;5009210;28;20462;-65
2022/05/03 13:29:23;;;;;;;2.87;1.50;;;20.90;50.80;;;;;;5007299;28;20579;-65
2022/05/03 13:31:50;;;;;;;1.67;1.40;;;20.80;50.90;;;;;;4994264;28;20478;-65